Time;durP1;ratioP1;P1;durP2;ratioP2;P2;SDS_P1;SDS_P2;PMS_P1;PMS_P2;Temp;Humidity;BMP_temperature;BMP_pressure;BME280_temperature;BME280_humidity;BME280_pressure;Samples;Min_cycle;Max_cycle;Signal;HPM_P1;HPM_P2
2022/10/04 00:00:47;;;;;;;3.38;2.33;;;;;;;23.24;42.79;95091.09;5050644;28;20169;-65
2022/10/04 00:03:24;;;;;;;3.78;2.50;;;;;;;23.59;43.30;95148.34;5073056;28;20491;-65
2022/10/04 00:05:52;;;;;;;3.92;2.35;;;;;;;23.05;42.73;95067.72;5067810;28;20040;-65
2022/10/04 00:08:29;;;;;;;3.63;2.40;;;;;;;23.62;42.99;95158.22;5090935;28;20020;-65
2022/10/04 00:11:36;;;;;;;3.70;2.28;;;;;;;23.59;42.99;95159.25;5074514;28;20040;-67
2022/10/04 00:14:07;;;;;;;4.43;2.90;;;;;;;23.28;43.28;95124.25;5078751;28;20061;-65
2022/10/04 00:16:37;;;;;;;3.80;2.60;;;;;;;23.18;43.03;95104.00;5099324;28;20040;-66
2022/10/04 00:19:14;;;;;;;3.53;2.60;;;;;;;23.56;43.39;95154.81;5098401;28;20279;-69
2022/10/04 00:22:02;;;;;;;3.30;2.30;;;;;;;23.50;43.06;95135.75;5088345;28;20040;-67
2022/10/04 00:24:29;;;;;;;3.60;2.70;;;;;;;23.17;43.08;95102.56;5047936;28;20032;-65
2022/10/04 00:27:23;;;;;;;3.63;2.50;;;;;;;23.54;43.48;95146.38;5079552;28;20038;-65
2022/10/04 00:30:09;;;;;;;4.30;2.78;;;;;;;23.25;43.25;95103.47;5091809;28;20053;-65
2022/10/04 00:32:41;;;;;;;3.30;2.45;;;;;;;23.54;43.62;95135.47;5102412;28;20052;-64
2022/10/04 00:35:24;;;;;;;3.58;2.55;;;;;;;23.54;43.46;95140.94;5100139;28;20035;-65
2022/10/04 00:37:56;;;;;;;2.88;2.25;;;;;;;23.53;43.36;95137.47;5102947;28;20122;-66
2022/10/04 00:40:22;;;;;;;5.35;2.70;;;;;;;23.10;43.46;95070.41;5097849;28;20114;-65
2022/10/04 00:43:10;;;;;;;4.03;2.60;;;;;;;23.46;43.28;95112.75;5062874;28;20285;-65
2022/10/04 00:45:40;;;;;;;4.03;2.50;;;;;;;22.93;43.23;95045.25;5091648;28;20032;-68
2022/10/04 00:48:20;;;;;;;3.00;2.38;;;;;;;23.47;43.25;95119.69;5083421;28;20011;-64
2022/10/04 00:50:53;;;;;;;3.55;2.65;;;;;;;23.46;43.46;95107.28;5103134;28;20034;-65
2022/10/04 00:53:40;;;;;;;3.22;2.45;;;;;;;23.07;43.28;95048.88;5084039;28;20046;-64
2022/10/04 00:56:12;;;;;;;3.58;2.50;;;;;;;23.33;42.98;95084.59;5091943;28;20414;-65
2022/10/04 00:58:57;;;;;;;4.30;2.63;;;;;;;23.41;43.61;95099.91;5080559;28;20506;-66
2022/10/04 01:01:24;;;;;;;3.60;2.45;;;;;;;23.18;42.97;95068.59;5089822;28;20036;-65
2022/10/04 01:03:51;;;;;;;3.95;2.63;;;;;;;23.16;43.16;95068.38;5098732;28;20063;-65
2022/10/04 01:06:16;;;;;;;3.70;2.50;;;;;;;22.76;43.02;95013.16;5102286;28;20031;-65
2022/10/04 01:08:53;;;;;;;3.25;2.50;;;;;;;23.39;43.14;95102.38;5084615;28;20808;-66
2022/10/04 01:11:21;;;;;;;4.22;2.50;;;;;;;23.37;43.14;95098.69;5083868;28;20039;-65
2022/10/04 01:13:57;;;;;;;3.22;2.55;;;;;;;23.18;43.27;95071.31;5067404;28;20500;-64
2022/10/04 01:16:32;;;;;;;3.20;2.35;;;;;;;23.44;43.22;95096.16;5066331;28;20039;-64
2022/10/04 01:19:23;;;;;;;3.20;2.45;;;;;;;23.40;43.28;95098.41;5084290;28;20435;-65
2022/10/04 01:22:04;;;;;;;3.22;2.60;;;;;;;23.41;43.49;95108.81;5093726;28;20047;-66
2022/10/04 01:24:33;;;;;;;3.38;2.58;;;;;;;23.33;43.29;95098.94;5101907;28;20043;-65
2022/10/04 01:26:59;;;;;;;3.28;2.50;;;;;;;23.30;43.64;95089.06;5094798;28;20173;-66
2022/10/04 01:29:26;;;;;;;4.13;2.78;;;;;;;23.24;42.96;95080.19;5102585;28;20023;-65
2022/10/04 01:31:53;;;;;;;3.30;2.42;;;;;;;22.81;43.55;95009.66;5074042;28;20905;-65
2022/10/04 01:34:26;;;;;;;4.25;2.70;;;;;;;23.32;43.54;95092.03;5096774;28;20547;-65
2022/10/04 01:36:53;;;;;;;3.72;2.90;;;;;;;23.15;43.42;95075.09;5100872;28;20047;-65
2022/10/04 01:39:20;;;;;;;3.30;2.47;;;;;;;23.34;43.17;95095.00;5101806;28;20501;-65
2022/10/04 01:42:00;;;;;;;3.20;2.53;;;;;;;23.37;43.64;95093.97;5082147;28;20042;-66
2022/10/04 01:44:37;;;;;;;3.25;2.33;;;;;;;23.37;43.32;95093.97;5089344;28;20052;-68
2022/10/04 01:47:08;;;;;;;2.97;2.42;;;;;;;23.16;43.08;95084.72;5086216;28;20094;-66
2022/10/04 01:49:35;;;;;;;3.67;2.95;;;;;;;23.35;43.31;95107.38;5083041;28;20047;-65
2022/10/04 01:52:06;;;;;;;3.83;2.72;;;;;;;23.30;43.34;95105.41;5055575;28;20039;-66
2022/10/04 01:54:38;;;;;;;3.70;2.70;;;;;;;23.13;43.41;95074.84;5096586;28;20040;-65
2022/10/04 01:57:13;;;;;;;3.60;2.60;;;;;;;23.22;43.37;95096.31;5074971;28;20047;-66
2022/10/04 02:00:11;;;;;;;4.25;2.80;;;;;;;23.35;43.64;95106.63;5066436;28;20019;-66
2022/10/04 02:02:39;;;;;;;4.15;3.17;;;;;;;23.33;43.76;95104.41;5043038;28;20730;-65
2022/10/04 02:05:05;;;;;;;3.17;2.42;;;;;;;23.30;43.72;95116.31;5068567;28;20047;-65
2022/10/04 02:07:31;;;;;;;4.20;2.85;;;;;;;23.04;43.64;95061.53;5039373;28;20035;-66
2022/10/04 02:09:59;;;;;;;4.35;3.33;;;;;;;23.34;43.27;95116.78;5082568;28;20028;-65
2022/10/04 02:12:26;;;;;;;3.67;2.83;;;;;;;23.29;43.63;95114.84;5080030;28;20582;-66
2022/10/04 02:14:52;;;;;;;5.50;3.00;;;;;;;22.99;43.21;95070.47;5078378;28;20027;-66
2022/10/04 02:17:32;;;;;;;4.10;2.70;;;;;;;23.28;43.58;95113.38;5080675;28;20430;-66
2022/10/04 02:19:58;;;;;;;;;;;;;;;23.33;43.61;95115.31;5080315;28;20119;-66
2022/10/04 02:22:23;;;;;;;4.20;3.05;;;;;;;23.04;43.18;95083.31;5077925;28;20445;-64
2022/10/04 02:24:52;;;;;;;4.03;3.10;;;;;;;22.96;43.58;95076.94;5056823;28;20641;-65
2022/10/04 02:27:17;;;;;;;3.95;3.00;;;;;;;22.85;43.13;95059.16;5073081;28;20071;-65
2022/10/04 02:29:43;;;;;;;3.90;3.00;;;;;;;23.25;43.32;95122.56;5063038;28;20028;-66
2022/10/04 02:34:53;;;;;;;4.43;3.28;;;;;;;23.00;43.31;95082.84;5079637;28;20134;-65
2022/10/04 02:37:25;;;;;;;4.00;2.90;;;;;;;22.73;43.67;95068.63;5045079;28;20097;-66
2022/10/04 02:40:07;;;;;;;4.25;3.28;;;;;;;22.94;43.83;95082.16;5036706;28;20491;-65
2022/10/04 02:42:35;;;;;;;5.00;3.38;;;;;;;23.28;43.32;95118.81;5057807;28;20488;-64
2022/10/04 02:45:23;;;;;;;4.10;3.20;;;;;;;23.24;43.46;95118.34;5069047;28;20198;-65
2022/10/04 02:47:59;;;;;;;3.80;3.17;;;;;;;23.26;43.55;95134.94;5046460;28;20583;-66
2022/10/04 02:50:37;;;;;;;3.85;2.85;;;;;;;22.83;43.45;95072.53;5046403;28;20040;-66
2022/10/04 02:53:22;;;;;;;4.15;3.30;;;;;;;23.27;43.60;95139.13;5061920;28;20040;-65
2022/10/04 02:55:47;;;;;;;4.28;3.40;;;;;;;23.26;43.93;95137.66;5067305;28;20093;-64
2022/10/04 02:58:17;;;;;;;4.32;3.20;;;;;;;22.89;43.51;95088.31;5055754;28;20036;-66
2022/10/04 03:00:48;;;;;;;4.93;3.70;;;;;;;23.25;43.60;95141.63;5032474;28;20040;-69
2022/10/04 03:03:27;;;;;;;4.18;3.22;;;;;;;23.21;43.78;95146.59;5054333;28;20047;-67
2022/10/04 03:06:05;;;;;;;4.57;3.30;;;;;;;23.18;43.89;95147.59;5046088;28;20054;-67
2022/10/04 03:08:35;;;;;;;5.00;3.35;;;;;;;23.18;43.72;95142.16;5077651;28;20124;-63
2022/10/04 03:11:02;;;;;;;4.18;3.22;;;;;;;23.18;43.71;95163.94;5045680;28;20040;-63
2022/10/04 03:13:27;;;;;;;4.25;3.20;;;;;;;23.19;44.08;95138.19;5062241;28;20087;-64
2022/10/04 03:15:53;;;;;;;4.65;3.42;;;;;;;22.58;43.99;95073.66;5080348;28;20518;-65
2022/10/04 03:18:18;;;;;;;4.45;3.35;;;;;;;23.16;43.72;95150.09;5080136;28;20039;-64
2022/10/04 03:20:44;;;;;;;4.53;3.35;;;;;;;22.61;44.11;95061.75;5081460;28;20051;-65
2022/10/04 03:23:10;;;;;;;4.50;3.20;;;;;;;23.12;43.84;95138.75;5079516;28;20134;-65
2022/10/04 03:25:47;;;;;;;4.63;3.50;;;;;;;22.93;44.05;95116.06;5076051;28;20504;-65
2022/10/04 03:28:13;;;;;;;4.78;3.25;;;;;;;22.93;43.96;95115.31;5084522;28;20105;-67
2022/10/04 03:30:45;;;;;;;4.88;3.70;;;;;;;23.05;43.82;95150.16;5084304;28;20020;-66
2022/10/04 03:33:22;;;;;;;4.38;3.60;;;;;;;23.08;44.09;95148.44;5053577;28;20036;-66
2022/10/04 03:35:52;;;;;;;5.15;3.67;;;;;;;22.89;43.71;95110.09;5066470;28;20491;-64
2022/10/04 03:38:18;;;;;;;5.28;3.60;;;;;;;22.93;43.61;95107.91;5056182;28;20530;-64
2022/10/04 03:40:50;;;;;;;4.88;3.28;;;;;;;23.03;44.16;95152.66;5046970;28;20071;-64
2022/10/04 03:43:16;;;;;;;5.28;3.78;;;;;;;22.96;44.45;95164.09;5058046;28;20541;-63
2022/10/04 03:45:41;;;;;;;5.05;3.30;;;;;;;23.05;44.51;95166.50;5045203;28;20063;-64
2022/10/04 03:48:07;;;;;;;7.07;3.20;;;;;;;22.96;44.31;95142.28;5077111;28;20390;-64
2022/10/04 03:50:36;;;;;;;4.05;3.22;;;;;;;23.15;44.12;95175.88;5036883;28;20023;-64
2022/10/04 03:53:16;;;;;;;4.32;3.38;;;;;;;23.06;44.42;95162.56;5028208;28;20052;-63
2022/10/04 03:55:44;;;;;;;4.15;2.92;;;;;;;22.77;44.49;95118.13;5057792;28;20472;-63
2022/10/04 03:58:11;;;;;;;4.00;2.92;;;;;;;22.68;44.86;95118.41;5062366;28;20103;-64
2022/10/04 04:00:39;;;;;;;3.78;3.00;;;;;;;22.68;44.85;95121.13;5063095;28;20495;-64
2022/10/04 04:03:05;;;;;;;3.85;2.95;;;;;;;22.97;44.67;95165.56;5054452;28;20042;-64
2022/10/04 04:05:59;;;;;;;4.38;3.13;;;;;;;23.04;44.66;95164.28;5061872;28;20584;-65
2022/10/04 04:08:40;;;;;;;4.95;3.30;;;;;;;22.82;44.78;95125.50;5056315;28;20418;-65
2022/10/04 04:11:06;;;;;;;4.32;3.20;;;;;;;22.71;45.09;95109.22;5055409;28;20051;-67
2022/10/04 04:13:51;;;;;;;4.07;3.10;;;;;;;23.26;44.71;95180.50;5064222;28;20044;-64
2022/10/04 04:16:18;;;;;;;4.20;3.20;;;;;;;23.29;44.47;95172.06;5052840;28;20036;-64
2022/10/04 04:18:44;;;;;;;3.58;3.10;;;;;;;23.02;44.40;95140.28;5060054;28;20118;-64
2022/10/04 04:21:11;;;;;;;3.85;2.83;;;;;;;23.39;44.32;95195.03;5059105;28;20091;-65
2022/10/04 04:23:37;;;;;;;4.82;3.15;;;;;;;23.37;44.68;95204.97;5045945;28;20346;-66
2022/10/04 04:26:21;;;;;;;3.92;3.03;;;;;;;23.23;44.64;95184.22;5054682;28;20545;-67
2022/10/04 04:28:52;;;;;;;4.05;2.88;;;;;;;22.97;44.61;95154.69;5070771;28;20726;-65
2022/10/04 04:31:20;;;;;;;4.13;2.80;;;;;;;22.92;44.96;95136.34;5044932;28;20048;-65
2022/10/04 04:33:58;;;;;;;4.00;3.00;;;;;;;23.40;45.10;95201.97;5059878;28;20135;-65
2022/10/04 04:36:24;;;;;;;3.42;2.80;;;;;;;23.18;45.30;95180.28;5061673;28;20052;-65
2022/10/04 04:41:36;;;;;;;3.83;2.97;;;;;;;22.91;45.32;95150.44;5067118;28;20622;-65
2022/10/04 04:44:03;;;;;;;4.03;2.90;;;;;;;23.34;45.30;95206.72;5033253;28;20044;-64
2022/10/04 04:46:29;;;;;;;4.20;3.03;;;;;;;23.16;45.08;95193.69;5046396;28;20055;-65
2022/10/04 04:49:17;;;;;;;3.50;2.90;;;;;;;22.66;45.66;95123.59;5057358;28;20040;-65
2022/10/04 04:51:46;;;;;;;3.97;3.17;;;;;;;23.17;45.22;95189.72;5077491;28;20048;-66
2022/10/04 04:54:12;;;;;;;3.88;2.85;;;;;;;23.27;45.09;95196.34;5064473;28;20071;-66
2022/10/04 04:56:37;;;;;;;4.03;2.92;;;;;;;22.89;45.26;95137.34;5045289;28;20028;-65
2022/10/04 04:59:03;;;;;;;3.83;2.90;;;;;;;23.24;45.10;95183.72;5079295;28;20041;-66
2022/10/04 05:01:33;;;;;;;3.45;2.63;;;;;;;23.28;45.33;95210.72;5081291;28;20487;-67
2022/10/04 05:04:14;;;;;;;3.63;2.47;;;;;;;23.36;45.49;95223.31;5049282;28;20120;-65
2022/10/04 05:06:41;;;;;;;4.03;2.88;;;;;;;23.40;45.08;95221.78;5070298;28;20043;-64
2022/10/04 05:09:23;;;;;;;2.65;2.05;;;;;;;23.29;41.23;95212.94;5065229;28;20125;-63
2022/10/04 05:11:49;;;;;;;4.38;2.20;;;;;;;22.75;41.37;95185.91;5081820;28;20096;-63
2022/10/04 05:14:15;;;;;;;3.20;2.20;;;;;;;22.71;41.14;95231.72;5068638;28;20058;-64
2022/10/04 05:16:45;;;;;;;3.90;2.22;;;;;;;22.82;41.34;95223.53;5052802;28;20028;-62
2022/10/04 05:19:31;;;;;;;3.03;2.17;;;;;;;22.29;42.19;95161.31;5071715;28;20051;-64
2022/10/04 05:21:58;;;;;;;3.78;2.50;;;;;;;22.81;42.04;95222.03;5062977;28;20051;-71
2022/10/04 05:24:34;;;;;;;5.68;2.97;;;;;;;22.74;42.46;95198.06;5032280;28;20546;-68
2022/10/04 05:27:02;;;;;;;4.15;2.75;;;;;;;22.53;41.95;95175.13;5053333;28;20111;-69
2022/10/04 05:29:31;;;;;;;3.70;2.50;;;;;;;22.53;42.85;95177.84;5038270;28;20062;-64
2022/10/04 05:32:02;;;;;;;4.20;2.50;;;;;;;22.52;43.52;95238.94;5041979;28;20822;-66
2022/10/04 05:34:39;;;;;;;3.22;2.25;;;;;;;22.88;43.88;95228.47;5056969;28;20048;-68
2022/10/04 05:37:07;;;;;;;4.40;2.42;;;;;;;22.99;44.82;95233.88;5094366;28;20593;-66
2022/10/04 05:39:50;;;;;;;5.05;2.30;;;;;;;22.84;43.25;95237.38;5095036;28;20142;-66
2022/10/04 05:42:25;;;;;;;2.67;1.98;;;;;;;22.37;44.57;95222.16;5073668;28;20043;-65
2022/10/04 05:44:52;;;;;;;4.78;2.20;;;;;;;22.40;42.72;95236.75;5053686;28;20092;-67
2022/10/04 05:47:22;;;;;;;2.95;2.10;;;;;;;22.70;41.63;95254.75;5068707;28;20484;-66
2022/10/04 05:49:48;;;;;;;;;;;;;;;22.57;41.53;95246.34;5045911;28;20129;-68
2022/10/04 05:52:23;;;;;;;6.13;1.40;;;;;;;23.01;36.09;95236.84;5052958;28;20375;-70
2022/10/04 05:54:51;;;;;;;4.63;1.40;;;;;;;22.51;36.79;95253.78;5058207;28;20059;-70
2022/10/04 05:57:38;;;;;;;3.25;1.42;;;;;;;22.27;35.05;95245.44;5045306;28;20066;-71
2022/10/04 06:00:19;;;;;;;9.60;1.52;;;;;;;21.61;38.54;95265.59;5019049;28;20025;-69
2022/10/04 06:03:16;;;;;;;6.03;1.60;;;;;;;21.82;39.19;95264.16;5041023;28;20081;-68
2022/10/04 06:05:54;;;;;;;4.57;1.83;;;;;;;22.14;39.81;95274.34;5061395;28;20059;-69
2022/10/04 06:08:50;;;;;;;4.55;1.52;;;;;;;22.16;39.63;95266.41;5044184;28;20054;-68
2022/10/04 06:11:34;;;;;;;4.47;1.33;;;;;;;22.30;39.39;95284.47;5076605;28;20100;-69
2022/10/04 06:14:35;;;;;;;4.68;1.70;;;;;;;22.02;39.27;95240.22;5095611;28;20040;-70
2022/10/04 06:17:20;;;;;;;3.17;1.30;;;;;;;22.50;39.00;95284.97;5080413;28;20062;-69
2022/10/04 06:20:04;;;;;;;3.13;1.60;;;;;;;22.45;39.39;95288.41;5065163;28;20032;-69
2022/10/04 06:22:30;;;;;;;2.92;1.30;;;;;;;22.42;38.99;95279.28;5088016;28;20185;-67
2022/10/04 06:25:05;;;;;;;2.20;1.40;;;;;;;22.55;39.18;95290.38;5101437;28;20070;-68
2022/10/04 06:27:52;;;;;;;3.05;1.50;;;;;;;22.58;39.17;95275.06;5089627;28;20044;-69
2022/10/04 06:30:18;;;;;;;4.22;1.60;;;;;;;22.67;39.09;95316.34;5096488;28;20047;-68
2022/10/04 06:33:02;;;;;;;2.30;1.10;;;;;;;22.69;38.76;95296.81;5094164;28;20019;-71
2022/10/04 06:35:33;;;;;;;2.25;1.33;;;;;;;22.72;38.60;95306.69;5093395;28;20044;-69
2022/10/04 06:38:01;;;;;;;2.35;1.33;;;;;;;22.76;38.60;95304.47;5084096;28;20413;-69
2022/10/04 06:40:39;;;;;;;2.78;1.27;;;;;;;22.75;38.82;95300.25;5094242;28;20040;-68
2022/10/04 06:43:43;;;;;;;2.35;1.30;;;;;;;22.77;38.63;95308.69;5102218;28;20032;-69
2022/10/04 06:46:23;;;;;;;3.53;1.60;;;;;;;22.63;38.74;95317.84;5001217;28;20034;-66
2022/10/04 06:49:17;;;;;;;4.57;1.50;;;;;;;22.68;38.85;95311.69;5087298;28;20068;-65
2022/10/04 06:51:55;;;;;;;2.75;1.20;;;;;;;22.72;39.00;95306.69;5085660;28;20717;-68
2022/10/04 06:54:39;;;;;;;2.47;1.42;;;;;;;22.50;39.00;95312.19;5074814;28;20458;-67
2022/10/04 06:57:31;;;;;;;2.42;1.40;;;;;;;22.47;38.92;95324.06;5075530;28;20097;-66
2022/10/04 07:00:09;;;;;;;2.85;1.40;;;;;;;22.46;38.70;95330.72;5060949;28;20081;-63
2022/10/04 07:03:00;;;;;;;3.35;1.52;;;;;;;22.45;38.93;95321.84;5052954;28;20062;-64
2022/10/04 07:05:32;;;;;;;2.95;1.42;;;;;;;22.04;38.60;95284.69;5087830;28;20032;-65
2022/10/04 07:15:58;;;;;;;2.13;1.30;;;;;;;21.57;38.45;95227.09;3196784;26;20127;-66
2022/10/04 07:21:08;;;;;;;2.38;1.33;;;;;;;20.91;38.67;95237.00;5041986;28;20108;-67
2022/10/04 07:24:00;;;;;;;4.10;1.88;;;;;;;21.55;38.34;95333.56;5045230;28;20119;-70
2022/10/04 07:26:47;;;;;;;5.18;1.73;;;;;;;21.74;38.14;95344.72;5033767;28;20044;-63
2022/10/04 07:29:36;;;;;;;7.65;1.83;;;;;;;21.59;38.32;95344.91;5061553;28;20036;-62
2022/10/04 07:32:04;;;;;;;4.55;2.22;;;;;;;21.58;38.00;95337.25;5053841;28;20041;-61
2022/10/04 07:34:35;;;;;;;2.50;1.17;;;;;;;21.42;37.92;95324.34;5048983;28;20180;-68
2022/10/04 07:37:07;;;;;;;5.30;1.60;;;;;;;20.97;38.20;95262.91;5010308;28;20116;-69
2022/10/04 07:39:39;;;;;;;5.10;1.65;;;;;;;21.61;38.00;95349.84;5027683;28;20098;-69
2022/10/04 07:42:23;;;;;;;4.43;1.52;;;;;;;21.51;38.00;95348.59;5010944;28;20025;-69
2022/10/04 07:45:19;;;;;;;4.22;1.40;;;;;;;21.49;37.76;95340.19;5053436;28;20048;-69
2022/10/04 07:47:45;;;;;;;4.18;1.10;;;;;;;21.15;37.39;95322.25;5053496;28;20462;-69
2022/10/04 07:50:23;;;;;;;2.17;1.10;;;;;;;21.22;37.55;95348.91;5043096;28;20082;-69
2022/10/04 07:52:53;;;;;;;2.25;1.25;;;;;;;21.23;37.58;95355.84;5044568;28;20156;-69
2022/10/04 07:55:56;;;;;;;2.50;1.30;;;;;;;21.14;37.08;95353.34;5036160;28;20037;-74
2022/10/04 07:58:53;;;;;;;2.63;1.13;;;;;;;21.16;37.27;95361.72;5046706;28;20107;-73
2022/10/04 08:01:46;;;;;;;3.03;1.42;;;;;;;21.07;37.15;95348.34;5061717;28;20032;-64
2022/10/04 08:04:34;;;;;;;3.63;1.50;;;;;;;21.17;37.00;95363.22;5046120;22;20045;-75
2022/10/04 08:07:00;;;;;;;2.10;1.20;;;;;;;20.79;36.83;95307.97;5021067;28;20064;-75
2022/10/04 08:09:47;;;;;;;3.38;1.13;;;;;;;21.32;36.44;95369.22;4993666;28;20038;-81
2022/10/04 08:12:20;;;;;;;2.78;1.15;;;;;;;20.77;36.52;95318.56;5020351;28;20125;-75
2022/10/04 08:15:04;;;;;;;3.15;1.20;;;;;;;20.89;36.91;95369.72;4978294;28;20061;-76
2022/10/04 08:18:02;;;;;;;3.30;1.15;;;;;;;20.95;37.06;95367.03;5020795;28;20048;-76
2022/10/04 08:20:46;;;;;;;2.15;1.27;;;;;;;20.97;36.97;95366.06;4944396;28;20052;-76
2022/10/04 08:23:46;;;;;;;4.05;1.48;;;;;;;21.01;36.80;95366.56;5011733;28;20103;-76
2022/10/04 08:26:14;;;;;;;5.40;1.52;;;;;;;21.04;36.95;95365.59;5024547;28;20079;-74
2022/10/04 08:32:10;;;;;;;4.07;1.10;;;;;;;21.16;36.75;95356.28;5023049;28;20141;-75
2022/10/04 08:34:53;;;;;;;2.65;1.20;;;;;;;21.14;37.07;95358.75;5029569;28;20109;-76
2022/10/04 08:37:46;;;;;;;3.50;1.20;;;;;;;21.48;36.90;95355.00;5024269;28;20033;-80
2022/10/04 08:40:38;;;;;;;2.08;1.23;;;;;;;21.92;37.06;95358.59;5030829;28;20136;-80
2022/10/04 08:43:15;;;;;;;3.85;1.50;;;;;;;22.08;37.30;95358.63;4997639;28;20048;-80
2022/10/04 08:45:46;;;;;;;4.60;1.45;;;;;;;21.65;37.35;95261.41;5032768;28;20048;-80
2022/10/04 08:48:23;;;;;;;3.88;1.77;;;;;;;22.34;37.65;95348.28;5031076;28;20093;-81
2022/10/04 08:51:07;;;;;;;4.10;1.80;;;;;;;22.20;37.59;95322.06;5034782;28;20087;-81
2022/10/04 08:53:45;;;;;;;2.95;1.48;;;;;;;22.42;37.88;95349.31;5024432;28;20112;-80
2022/10/04 08:56:32;;;;;;;2.67;1.48;;;;;;;22.46;37.67;95344.34;5021170;28;20089;-81
2022/10/04 08:59:39;;;;;;;4.25;1.63;;;;;;;22.55;38.17;95353.00;5021108;28;20511;-80
2022/10/04 09:02:24;;;;;;;3.78;1.50;;;;;;;22.67;38.12;95331.97;5023118;28;20061;-76
2022/10/04 09:05:13;;;;;;;4.00;1.60;;;;;;;22.71;38.01;95343.34;5025235;28;20107;-79
2022/10/04 09:07:54;;;;;;;3.47;1.55;;;;;;;22.73;37.76;95346.31;5018542;28;20041;-80
2022/10/04 09:10:36;;;;;;;4.47;1.50;;;;;;;22.69;38.21;95340.38;5033638;28;20038;-80
2022/10/04 09:13:43;;;;;;;3.42;1.63;;;;;;;22.73;38.04;95340.88;5031546;28;20419;-78
2022/10/04 09:16:15;;;;;;;4.15;1.48;;;;;;;22.75;38.13;95354.72;4992830;28;20082;-80
2022/10/04 09:18:48;;;;;;;2.80;1.60;;;;;;;22.88;38.02;95346.78;5032240;28;20491;-81
2022/10/04 09:21:32;;;;;;;3.58;1.63;;;;;;;22.86;37.72;95355.47;5033346;28;20064;-81
2022/10/04 09:24:24;;;;;;;2.50;1.63;;;;;;;22.81;37.93;95347.28;5030743;28;20041;-80
2022/10/04 09:27:21;;;;;;;5.00;1.77;;;;;;;22.92;37.56;95354.19;5027958;28;20218;-78
2022/10/04 09:30:40;;;;;;;3.60;1.80;;;;;;;22.86;37.79;95327.50;5015979;28;20668;-82
2022/10/04 09:33:28;;;;;;;2.35;1.63;;;;;;;22.88;37.38;95333.16;4922293;29;20630;-80
2022/10/04 09:36:26;;;;;;;3.45;1.80;;;;;;;23.13;37.45;95358.16;5004163;28;20104;-79
2022/10/04 09:39:00;;;;;;;4.93;1.75;;;;;;;23.16;37.73;95351.69;5006424;28;20038;-80
2022/10/04 09:41:52;;;;;;;3.92;2.00;;;;;;;22.70;37.43;95276.53;5032562;28;20034;-76
2022/10/04 09:44:30;;;;;;;3.15;1.73;;;;;;;23.08;37.08;95334.41;5020354;28;20129;-78
2022/10/04 09:47:37;;;;;;;4.60;1.75;;;;;;;23.21;37.02;95347.47;5010905;28;20071;-82
2022/10/04 09:50:12;;;;;;;2.60;1.55;;;;;;;23.24;37.74;95360.84;4996336;28;20040;-75
2022/10/04 09:52:40;;;;;;;2.95;1.73;;;;;;;23.25;37.63;95354.16;5020371;28;20033;-76
2022/10/04 09:55:24;;;;;;;4.13;1.50;;;;;;;23.33;37.13;95351.66;5039550;28;20112;-77
2022/10/04 09:58:11;;;;;;;4.07;1.50;;;;;;;23.39;36.96;95355.84;5039068;28;20041;-75
2022/10/04 10:00:48;;;;;;;2.90;1.70;;;;;;;23.37;37.07;95350.16;5035306;28;20496;-76
2022/10/04 10:03:33;;;;;;;2.75;1.60;;;;;;;23.41;37.40;95356.09;5042552;28;20042;-72
2022/10/04 10:06:21;;;;;;;2.15;1.50;;;;;;;23.47;37.32;95359.53;5037789;28;20033;-77
2022/10/04 10:09:18;;;;;;;2.67;1.63;;;;;;;23.47;36.83;95324.09;5020191;28;20018;-78
2022/10/04 10:14:48;;;;;;;2.10;1.40;;;;;;;23.71;36.70;95362.47;5025380;28;20043;-76
2022/10/04 10:17:35;;;;;;;3.55;1.60;;;;;;;23.74;36.09;95348.53;5032474;28;20059;-77
2022/10/04 10:20:25;;;;;;;2.65;1.70;;;;;;;23.91;36.44;95344.47;5023457;28;20112;-76
2022/10/04 10:23:09;;;;;;;3.28;1.60;;;;;;;23.90;36.20;95353.91;5028390;28;20038;-77
2022/10/04 10:25:37;;;;;;;2.10;1.58;;;;;;;23.99;36.64;95356.34;5030850;28;20056;-77
2022/10/04 10:28:21;;;;;;;2.88;1.65;;;;;;;24.07;35.95;95351.81;5031760;28;20041;-77
2022/10/04 10:31:14;;;;;;;2.10;1.40;;;;;;;23.87;35.49;95360.38;5020262;28;20042;-82
2022/10/04 10:34:17;;;;;;;3.10;1.60;;;;;;;23.91;37.52;95355.38;5014390;28;20473;-81
2022/10/04 10:37:01;;;;;;;2.78;1.67;;;;;;;23.10;37.28;95244.72;5010561;28;20048;-80
2022/10/04 10:39:32;;;;;;;2.85;1.90;;;;;;;23.73;37.22;95354.50;4999302;28;20045;-81
2022/10/04 10:42:13;;;;;;;3.33;1.63;;;;;;;23.69;37.34;95354.00;5004852;28;20040;-81
2022/10/04 10:45:02;;;;;;;2.67;1.65;;;;;;;23.81;37.00;95360.91;5030938;28;20033;-81
2022/10/04 10:47:47;;;;;;;4.30;1.95;;;;;;;23.87;36.38;95360.38;5012682;28;20107;-81
2022/10/04 10:50:24;;;;;;;3.35;2.30;;;;;;;23.80;36.62;95343.06;5031864;28;20507;-81
2022/10/04 10:53:30;;;;;;;3.67;2.50;;;;;;;23.57;36.59;95333.47;4997105;28;20061;-80
2022/10/04 10:56:15;;;;;;;5.00;2.67;;;;;;;23.66;37.03;95333.22;4999513;28;20043;-80
2022/10/04 10:59:00;;;;;;;4.00;2.30;;;;;;;23.84;36.27;95359.91;5001660;28;20041;-81
2022/10/04 11:01:41;;;;;;;5.80;2.88;;;;;;;23.96;36.27;95367.50;5011648;28;20838;-81
2022/10/04 11:04:50;;;;;;;4.28;3.08;;;;;;;23.57;37.28;95369.66;5018991;28;20042;-81
2022/10/04 11:07:22;;;;;;;5.95;2.72;;;;;;;23.60;36.63;95357.00;4965830;28;20042;-80
2022/10/04 11:10:08;;;;;;;5.68;2.97;;;;;;;23.68;37.38;95364.19;4967093;28;20564;-80
2022/10/04 11:13:17;;;;;;;4.28;3.20;;;;;;;23.86;37.17;95362.88;5006479;28;20612;-80
2022/10/04 11:16:16;;;;;;;4.30;3.50;;;;;;;23.73;37.30;95351.78;5005969;28;20202;-80
2022/10/04 11:19:00;;;;;;;4.68;3.10;;;;;;;23.70;37.52;95360.97;4999081;28;20116;-81
2022/10/04 11:21:45;;;;;;;3.75;2.85;;;;;;;23.58;38.09;95365.69;5031677;28;20042;-78
2022/10/04 11:24:24;;;;;;;5.30;3.30;;;;;;;23.37;37.39;95328.34;4991019;28;20045;-81
2022/10/04 11:27:06;;;;;;;4.57;3.30;;;;;;;23.19;37.96;95290.75;4995715;28;20032;-81
2022/10/04 11:29:46;;;;;;;4.40;3.17;;;;;;;23.85;37.80;95361.38;4987755;28;20108;-81
2022/10/04 11:32:19;;;;;;;;;;;;;;;23.91;37.57;95358.09;4994999;28;20467;-81
2022/10/04 11:35:24;;;;;;;4.65;3.15;;;;;;;23.94;37.39;95370.75;5031634;28;19920;-78
2022/10/04 11:38:47;;;;;;;4.18;3.08;;;;;;;24.05;37.72;95359.78;5015935;28;20164;-81
2022/10/04 11:41:27;;;;;;;3.92;2.92;;;;;;;23.98;37.30;95356.84;4970468;28;20116;-78
2022/10/04 11:43:52;;;;;;;4.45;2.92;;;;;;;23.84;37.70;95362.63;5012074;28;20150;-79
2022/10/04 11:46:38;;;;;;;4.55;2.88;;;;;;;23.92;38.19;95367.78;5013058;28;20037;-79
2022/10/04 11:49:36;;;;;;;4.00;2.70;;;;;;;23.90;37.61;95353.91;5015025;28;20033;-79
2022/10/04 11:52:28;;;;;;;3.70;2.67;;;;;;;23.87;37.45;95354.94;4946390;28;20111;-79
2022/10/04 11:55:19;;;;;;;4.43;2.60;;;;;;;23.89;37.60;95370.78;5017950;28;20056;-78
2022/10/04 11:58:27;;;;;;;4.50;2.80;;;;;;;23.87;37.45;95371.28;5033403;28;20038;-78
2022/10/04 12:01:13;;;;;;;4.18;2.58;;;;;;;23.80;38.00;95370.34;5017751;28;20056;-79
2022/10/04 12:03:52;;;;;;;3.92;2.88;;;;;;;23.74;37.96;95367.63;5034602;28;20043;-78
2022/10/04 12:06:49;;;;;;;4.50;2.80;;;;;;;23.66;37.23;95387.75;4996302;28;20080;-78
2022/10/04 12:09:39;;;;;;;4.50;2.72;;;;;;;23.62;37.91;95370.88;5010553;28;20049;-79
2022/10/04 12:15:31;;;;;;;4.47;2.40;;;;;;;23.78;38.04;95367.38;5019047;28;20061;-79
2022/10/04 12:18:35;;;;;;;5.05;3.08;;;;;;;23.95;38.13;95355.88;5035338;28;20048;-80
2022/10/04 12:21:22;;;;;;;3.50;1.50;;;;;;;24.27;32.23;95365.09;4987575;28;20142;-89
2022/10/04 12:24:26;;;;;;;3.85;1.80;;;;;;;23.35;35.83;95339.03;5049656;28;20041;-79
2022/10/04 12:27:25;;;;;;;4.82;2.45;;;;;;;23.67;37.03;95367.41;4951620;28;20023;-79
2022/10/04 12:29:59;;;;;;;3.77;2.20;;;;;;;23.66;37.43;95372.13;5043946;28;20030;-78
2022/10/04 12:32:43;;;;;;;3.60;2.38;;;;;;;23.55;37.37;95365.94;5033611;28;20032;-79
2022/10/04 12:35:28;;;;;;;2.80;2.03;;;;;;;23.70;37.59;95371.88;5015371;28;20439;-79
2022/10/04 12:38:22;;;;;;;3.80;2.20;;;;;;;23.73;37.40;95393.41;5031610;28;20037;-79
2022/10/04 12:41:01;;;;;;;3.95;2.00;;;;;;;23.14;37.11;95299.72;5013474;28;20120;-79
2022/10/04 12:43:39;;;;;;;3.60;2.13;;;;;;;23.64;37.50;95380.06;5017114;28;20045;-79
2022/10/04 12:46:07;;;;;;;3.03;1.90;;;;;;;23.91;37.36;95377.19;5001444;28;20129;-79
2022/10/04 12:48:54;;;;;;;2.60;2.00;;;;;;;23.90;37.30;95343.00;5030564;28;20108;-79
2022/10/04 12:51:41;;;;;;;2.35;1.88;;;;;;;24.20;36.78;95379.28;4998173;28;20116;-79
2022/10/04 12:54:33;;;;;;;3.72;2.10;;;;;;;24.15;36.80;95380.03;5030368;28;20032;-79